createdAt,value
2018-07-26T00:00:21.296Z,88.20
2018-07-26T00:02:49.467Z,88.30
2018-07-26T00:05:17.696Z,88.20
2018-07-26T00:07:45.899Z,88.40
2018-07-26T00:10:14.062Z,88.40
2018-07-26T00:12:42.276Z,88.20
2018-07-26T00:15:10.504Z,87.80
2018-07-26T00:17:38.778Z,87.50
2018-07-26T00:20:07.384Z,87.10
2018-07-26T00:22:35.532Z,87.70
2018-07-26T00:25:03.881Z,87.80
2018-07-26T00:27:32.097Z,87.80
2018-07-26T00:30:00.253Z,87.90
2018-07-26T00:32:28.449Z,88.20
2018-07-26T00:34:56.595Z,88.40
2018-07-26T00:37:24.796Z,88.00
2018-07-26T00:39:52.932Z,87.70
2018-07-26T00:42:27.854Z,87.70
2018-07-26T00:44:56.049Z,88.20
2018-07-26T00:47:24.218Z,88.50
2018-07-26T00:49:52.416Z,88.10
2018-07-26T00:52:20.580Z,88.70
2018-07-26T00:54:48.820Z,88.70
2018-07-26T00:57:16.991Z,89.10
2018-07-26T00:59:45.269Z,89.60
2018-07-26T01:02:13.484Z,89.20
2018-07-26T01:04:41.780Z,88.60
2018-07-26T01:07:10.016Z,89.30
2018-07-26T01:09:38.235Z,89.40
2018-07-26T01:12:06.617Z,89.00
2018-07-26T01:14:34.772Z,88.60
2018-07-26T01:17:03.020Z,88.50
2018-07-26T01:19:31.281Z,88.50
2018-07-26T01:21:59.479Z,88.60
2018-07-26T01:24:27.672Z,88.60
2018-07-26T01:26:55.829Z,88.50
2018-07-26T01:29:24.076Z,88.20
2018-07-26T01:31:54.091Z,88.00
2018-07-26T01:34:23.708Z,88.00
2018-07-26T01:36:52.502Z,88.20
2018-07-26T01:39:20.712Z,88.20
2018-07-26T01:41:49.220Z,88.10
2018-07-26T01:44:20.980Z,88.20
2018-07-26T01:46:49.169Z,88.30
2018-07-26T01:49:17.696Z,88.80
2018-07-26T01:51:45.913Z,88.80
2018-07-26T01:54:14.416Z,88.90
2018-07-26T01:56:42.570Z,88.90
2018-07-26T01:59:10.809Z,89.10
2018-07-26T02:01:39.029Z,89.60
2018-07-26T02:04:07.261Z,89.90
2018-07-26T02:06:35.498Z,89.90
2018-07-26T02:09:06.479Z,89.80
2018-07-26T02:11:34.665Z,89.90
2018-07-26T02:14:34.273Z,91.00
2018-07-26T02:17:02.896Z,91.30
2018-07-26T02:19:31.161Z,91.10
2018-07-26T02:21:59.377Z,91.50
2018-07-26T02:24:27.621Z,91.80
2018-07-26T02:26:55.784Z,91.90
2018-07-26T02:29:23.969Z,92.00
2018-07-26T02:31:52.169Z,92.00
2018-07-26T02:34:20.345Z,92.10
2018-07-26T02:36:48.576Z,91.90
2018-07-26T02:39:16.740Z,91.50
2018-07-26T02:41:44.942Z,91.60
2018-07-26T02:44:13.144Z,91.20
2018-07-26T02:46:41.297Z,91.50
2018-07-26T02:49:09.480Z,91.40
2018-07-26T02:51:37.632Z,91.50
2018-07-26T02:54:05.846Z,92.00
2018-07-26T02:56:34.013Z,92.20
2018-07-26T02:59:02.196Z,92.00
2018-07-26T03:01:30.380Z,91.50
2018-07-26T03:03:58.537Z,91.10
2018-07-26T03:06:26.724Z,90.90
2018-07-26T03:08:54.891Z,90.20
2018-07-26T03:13:51.144Z,90.10
2018-07-26T03:16:19.313Z,90.30
2018-07-26T03:18:47.509Z,90.00
2018-07-26T03:21:15.688Z,89.90
2018-07-26T03:23:43.936Z,89.70
2018-07-26T03:26:12.144Z,89.60
2018-07-26T03:28:40.312Z,89.20
2018-07-26T03:31:08.996Z,89.20
2018-07-26T03:33:37.161Z,89.50
2018-07-26T03:36:05.356Z,89.60
2018-07-26T03:38:33.548Z,89.60
2018-07-26T03:41:01.793Z,89.70
2018-07-26T03:43:29.992Z,89.90
2018-07-26T03:45:58.185Z,89.70
2018-07-26T03:48:26.408Z,89.60
2018-07-26T03:50:54.578Z,89.80
2018-07-26T03:53:22.792Z,89.60
2018-07-26T03:55:51.005Z,89.70
2018-07-26T03:58:19.164Z,89.70
2018-07-26T04:00:47.392Z,89.30
2018-07-26T04:03:15.567Z,89.20
2018-07-26T04:05:43.781Z,89.30
2018-07-26T04:08:11.974Z,89.60
2018-07-26T04:10:40.148Z,89.30
2018-07-26T04:15:36.263Z,89.60
2018-07-26T04:18:05.530Z,89.60
2018-07-26T04:20:34.437Z,89.60
2018-07-26T04:23:02.936Z,89.10
2018-07-26T04:25:32.041Z,89.30
2018-07-26T04:28:00.900Z,89.80
2018-07-26T04:30:29.145Z,89.70
2018-07-26T04:32:57.296Z,89.70
2018-07-26T04:35:25.476Z,89.40
2018-07-26T04:37:53.825Z,89.80
2018-07-26T04:40:22.052Z,89.80
2018-07-26T04:42:50.251Z,89.90
2018-07-26T04:45:18.408Z,89.80
2018-07-26T04:47:46.610Z,89.70
2018-07-26T04:50:14.805Z,89.50
2018-07-26T04:52:43.111Z,89.90
2018-07-26T04:55:11.257Z,90.20
2018-07-26T04:57:39.440Z,90.60
2018-07-26T05:00:07.840Z,90.50
2018-07-26T05:02:36.276Z,90.50
2018-07-26T05:05:05.073Z,90.40
2018-07-26T05:07:33.261Z,90.00
2018-07-26T05:10:01.504Z,89.30
2018-07-26T05:12:29.717Z,88.60
2018-07-26T05:14:57.902Z,87.70
2018-07-26T05:17:26.089Z,87.20
2018-07-26T05:19:54.235Z,86.50
2018-07-26T05:22:22.441Z,85.10
2018-07-26T05:24:50.653Z,84.40
2018-07-26T05:27:18.835Z,83.80
2018-07-26T05:29:47.108Z,82.30
2018-07-26T05:32:15.405Z,81.90
2018-07-26T05:34:43.641Z,81.60
2018-07-26T05:37:11.840Z,80.70
2018-07-26T05:39:39.992Z,79.90
2018-07-26T05:42:08.221Z,79.40
2018-07-26T05:44:36.377Z,79.50
2018-07-26T05:47:04.633Z,79.30
2018-07-26T05:49:32.853Z,79.10
2018-07-26T05:52:01.050Z,78.00
2018-07-26T05:54:29.249Z,78.30
2018-07-26T05:56:57.457Z,78.20
2018-07-26T06:01:53.611Z,76.80
2018-07-26T06:04:21.813Z,76.80
2018-07-26T06:06:49.988Z,77.60
2018-07-26T06:09:18.168Z,76.70
2018-07-26T06:11:46.320Z,76.80
2018-07-26T06:14:14.560Z,76.90
2018-07-26T06:16:42.750Z,75.60
2018-07-26T06:19:10.921Z,76.00
2018-07-26T06:21:39.312Z,76.30
2018-07-26T06:24:07.766Z,76.10
2018-07-26T06:26:36.077Z,75.50
2018-07-26T06:29:04.417Z,74.10
2018-07-26T06:31:32.666Z,74.20
2018-07-26T06:34:00.988Z,75.00
2018-07-26T06:36:29.236Z,73.60
2018-07-26T06:38:57.480Z,72.70
2018-07-26T06:41:25.691Z,73.40
2018-07-26T06:43:53.893Z,73.20
2018-07-26T06:46:22.081Z,73.40
2018-07-26T06:48:50.234Z,72.20
2018-07-26T06:51:18.772Z,73.50
2018-07-26T06:53:46.941Z,73.30
2018-07-26T06:56:15.149Z,73.50
2018-07-26T06:58:43.344Z,73.30
2018-07-26T07:01:11.500Z,73.50
2018-07-26T07:03:39.700Z,72.80
2018-07-26T07:06:07.915Z,72.30
2018-07-26T07:08:36.185Z,72.30
2018-07-26T07:11:04.436Z,72.80
2018-07-26T07:13:32.669Z,72.90
2018-07-26T07:16:00.894Z,72.30
2018-07-26T07:18:29.081Z,72.60
2018-07-26T07:20:57.304Z,72.40
2018-07-26T07:23:25.621Z,71.50
2018-07-26T07:25:53.795Z,71.70
2018-07-26T07:28:22.137Z,71.40
2018-07-26T07:30:50.320Z,71.40
2018-07-26T07:33:18.565Z,71.20
2018-07-26T07:35:46.800Z,71.90
2018-07-26T07:38:15.017Z,70.90
2018-07-26T07:40:43.270Z,71.80
2018-07-26T07:43:11.525Z,72.30
2018-07-26T07:45:39.740Z,71.40
2018-07-26T07:48:07.909Z,71.10
2018-07-26T07:50:36.140Z,70.90
2018-07-26T07:53:04.357Z,71.40
2018-07-26T07:55:32.607Z,70.40
2018-07-26T07:58:00.801Z,69.60
2018-07-26T08:00:28.982Z,70.30
2018-07-26T08:02:57.204Z,70.50
2018-07-26T08:05:25.403Z,69.50
2018-07-26T08:07:53.611Z,70.00
2018-07-26T08:10:21.832Z,68.90
2018-07-26T08:12:50.010Z,69.10
2018-07-26T08:15:18.205Z,70.20
2018-07-26T08:17:46.388Z,69.60
2018-07-26T08:20:14.576Z,69.90
2018-07-26T08:22:42.745Z,69.20
2018-07-26T08:25:10.989Z,68.80
2018-07-26T08:27:39.558Z,67.90
2018-07-26T08:30:09.432Z,67.90
2018-07-26T08:32:37.778Z,68.10
2018-07-26T08:35:05.980Z,67.50
2018-07-26T08:37:34.304Z,69.70
2018-07-26T08:40:03.037Z,68.70
2018-07-26T08:42:31.381Z,67.00
2018-07-26T08:44:59.613Z,67.90
2018-07-26T08:47:27.804Z,66.50
2018-07-26T08:49:56.024Z,66.90
2018-07-26T08:52:24.217Z,67.10
2018-07-26T08:54:52.686Z,68.00
2018-07-26T08:57:20.867Z,67.80
2018-07-26T08:59:49.024Z,68.10
2018-07-26T09:02:17.224Z,68.50
2018-07-26T09:04:45.409Z,68.30
2018-07-26T09:07:13.564Z,66.80
2018-07-26T09:09:41.772Z,67.50
2018-07-26T09:12:10.044Z,66.00
2018-07-26T09:14:38.236Z,67.10
2018-07-26T09:19:34.409Z,68.70
2018-07-26T09:22:02.604Z,65.90
2018-07-26T09:24:30.776Z,67.50
2018-07-26T09:26:59.813Z,65.70
2018-07-26T09:29:28.048Z,65.80
2018-07-26T09:31:56.226Z,63.80
2018-07-26T09:34:24.443Z,63.60
2018-07-26T09:36:52.611Z,64.60
2018-07-26T09:39:20.809Z,64.70
2018-07-26T09:41:49.012Z,64.70
2018-07-26T09:44:17.237Z,63.50
2018-07-26T09:46:45.420Z,63.70
2018-07-26T09:49:13.577Z,62.40
2018-07-26T09:51:41.798Z,63.30
2018-07-26T09:54:09.997Z,62.00
2018-07-26T09:56:38.194Z,60.80
2018-07-26T09:59:06.339Z,60.30
2018-07-26T10:01:35.923Z,59.60
2018-07-26T10:04:04.149Z,61.00
2018-07-26T10:06:32.342Z,60.40
2018-07-26T10:09:00.520Z,62.50
2018-07-26T10:11:28.680Z,60.90
2018-07-26T10:13:56.932Z,61.50
2018-07-26T10:16:25.408Z,61.40
2018-07-26T10:18:53.748Z,60.20
2018-07-26T10:21:21.956Z,60.00
2018-07-26T10:23:50.097Z,60.20
2018-07-26T10:26:18.292Z,59.40
2018-07-26T10:28:46.446Z,61.20
2018-07-26T10:31:14.636Z,60.20
2018-07-26T10:33:42.864Z,59.80
2018-07-26T10:36:11.376Z,60.80
2018-07-26T10:38:39.649Z,60.00
2018-07-26T10:41:07.876Z,60.40
2018-07-26T10:43:36.125Z,59.20
2018-07-26T10:46:04.504Z,61.50
2018-07-26T10:48:32.669Z,62.10
2018-07-26T10:51:00.853Z,59.60
2018-07-26T10:53:29.013Z,61.40
2018-07-26T10:55:57.269Z,60.70
2018-07-26T10:58:25.491Z,62.50
2018-07-26T11:00:53.681Z,59.10
2018-07-26T11:03:22.510Z,58.80
2018-07-26T11:05:50.741Z,58.40
2018-07-26T11:08:19.265Z,58.20
2018-07-26T11:10:47.513Z,56.70
2018-07-26T11:13:15.696Z,55.30
2018-07-26T11:15:43.916Z,55.90
2018-07-26T11:18:12.094Z,57.50
2018-07-26T11:20:40.328Z,55.00
2018-07-26T11:23:08.487Z,56.30
2018-07-26T11:25:36.752Z,56.90
2018-07-26T11:28:05.227Z,57.10
2018-07-26T11:30:33.436Z,55.50
2018-07-26T11:33:01.614Z,55.70
2018-07-26T11:35:29.820Z,57.00
2018-07-26T11:37:58.092Z,57.70
2018-07-26T11:40:26.281Z,59.60
2018-07-26T11:42:54.748Z,58.40
2018-07-26T11:45:22.949Z,56.20
2018-07-26T11:47:51.164Z,55.70
2018-07-26T11:50:19.389Z,57.10
2018-07-26T11:52:47.561Z,54.90
2018-07-26T11:55:15.820Z,56.80
2018-07-26T11:57:44.021Z,56.50
2018-07-26T12:02:40.199Z,55.00
2018-07-26T12:05:08.472Z,53.10
2018-07-26T12:07:36.665Z,57.10
2018-07-26T12:10:05.229Z,54.90
2018-07-26T12:12:33.425Z,55.50
2018-07-26T12:15:01.661Z,56.20
2018-07-26T12:17:29.841Z,54.70
2018-07-26T12:19:58.054Z,55.10
2018-07-26T12:22:26.221Z,53.00
2018-07-26T12:24:54.436Z,55.50
2018-07-26T12:27:22.597Z,54.40
2018-07-26T12:29:50.785Z,54.40
2018-07-26T12:32:18.967Z,54.50
2018-07-26T12:34:47.173Z,55.00
2018-07-26T12:37:15.411Z,55.70
2018-07-26T12:39:43.612Z,55.70
2018-07-26T12:42:11.844Z,55.00
2018-07-26T12:44:40.061Z,55.00
2018-07-26T12:47:08.277Z,56.10
2018-07-26T12:49:36.489Z,57.40
2018-07-26T12:52:04.682Z,54.60
2018-07-26T12:54:32.885Z,56.20
2018-07-26T12:57:01.130Z,59.50
2018-07-26T12:59:29.369Z,58.30
2018-07-26T13:01:57.566Z,57.30
2018-07-26T13:04:25.770Z,58.60
2018-07-26T13:06:54.009Z,58.40
2018-07-26T13:09:22.188Z,57.80
2018-07-26T13:11:50.405Z,56.40
2018-07-26T13:14:18.584Z,55.30
2018-07-26T13:16:46.764Z,54.70
2018-07-26T13:19:14.997Z,52.60
2018-07-26T13:21:43.205Z,53.30
2018-07-26T13:24:11.397Z,52.90
2018-07-26T13:26:39.600Z,54.30
2018-07-26T13:29:07.868Z,53.70
2018-07-26T13:31:36.105Z,53.50
2018-07-26T13:34:04.300Z,54.10
2018-07-26T13:36:32.525Z,55.90
2018-07-26T13:39:00.740Z,55.80
2018-07-26T13:41:28.939Z,53.80
2018-07-26T13:43:57.145Z,54.10
2018-07-26T13:46:25.398Z,53.90
2018-07-26T13:48:53.593Z,55.10
2018-07-26T13:51:21.816Z,52.20
2018-07-26T13:53:49.985Z,52.70
2018-07-26T13:56:18.187Z,52.20
2018-07-26T13:58:46.365Z,52.50
2018-07-26T14:01:14.616Z,52.40
2018-07-26T14:03:42.816Z,54.20
2018-07-26T14:06:10.986Z,52.30
2018-07-26T14:08:39.337Z,55.20
2018-07-26T14:11:07.608Z,53.90
2018-07-26T14:13:35.873Z,53.40
2018-07-26T14:16:04.648Z,55.60
2018-07-26T14:18:33.289Z,56.10
2018-07-26T14:21:01.644Z,56.90
2018-07-26T14:23:35.377Z,55.70
2018-07-26T14:26:04.008Z,54.60
2018-07-26T14:28:32.261Z,54.10
2018-07-26T14:31:31.678Z,53.80
2018-07-26T14:33:59.902Z,55.30
2018-07-26T14:36:28.084Z,55.50
2018-07-26T14:38:56.329Z,56.50
2018-07-26T14:43:52.489Z,55.00
2018-07-26T14:46:20.768Z,54.90
2018-07-26T14:48:48.969Z,54.60
2018-07-26T14:51:17.190Z,55.00
2018-07-26T14:53:45.365Z,55.90
2018-07-26T14:56:13.568Z,55.80
2018-07-26T14:58:41.762Z,55.90
2018-07-26T15:01:09.985Z,57.10
2018-07-26T15:03:38.201Z,53.90
2018-07-26T15:06:06.470Z,55.70
2018-07-26T15:08:34.669Z,56.20
2018-07-26T15:13:30.819Z,54.00
2018-07-26T15:15:59.037Z,56.60
2018-07-26T15:18:27.215Z,56.70
2018-07-26T15:20:56.109Z,56.70
2018-07-26T15:23:24.293Z,57.10
2018-07-26T15:25:52.506Z,53.60
2018-07-26T15:28:20.841Z,53.60
2018-07-26T15:30:49.471Z,55.30
2018-07-26T15:33:17.713Z,54.00
2018-07-26T15:35:45.973Z,53.80
2018-07-26T15:38:14.171Z,54.10
2018-07-26T15:40:42.376Z,54.80
2018-07-26T15:43:10.572Z,57.60
2018-07-26T15:45:38.811Z,59.00
2018-07-26T15:48:06.932Z,56.90
2018-07-26T15:50:35.580Z,56.90
2018-07-26T15:53:03.837Z,56.10
2018-07-26T15:55:32.139Z,55.70
2018-07-26T15:58:00.320Z,56.90
2018-07-26T16:00:28.476Z,56.90
2018-07-26T16:02:56.688Z,57.50
2018-07-26T16:05:24.858Z,57.70
2018-07-26T16:07:53.065Z,56.60
2018-07-26T16:10:21.283Z,57.10
2018-07-26T16:12:49.525Z,56.40
2018-07-26T16:15:17.748Z,56.20
2018-07-26T16:17:45.999Z,57.30
2018-07-26T16:20:14.184Z,57.80
2018-07-26T16:22:42.391Z,59.90
2018-07-26T16:25:10.945Z,58.50
2018-07-26T16:27:39.406Z,58.30
2018-07-26T16:30:10.913Z,57.90
2018-07-26T16:32:39.120Z,57.00
2018-07-26T16:35:07.955Z,57.00
2018-07-26T16:37:36.500Z,57.50
2018-07-26T16:40:05.293Z,57.40
2018-07-26T16:42:33.529Z,56.70
2018-07-26T16:45:02.112Z,56.90
2018-07-26T16:47:30.368Z,57.90
2018-07-26T16:49:58.564Z,59.10
2018-07-26T16:52:26.793Z,59.90
2018-07-26T16:54:54.972Z,60.20
2018-07-26T16:57:23.165Z,60.60
2018-07-26T16:59:51.329Z,59.90
2018-07-26T17:02:19.532Z,60.00
2018-07-26T17:04:47.733Z,59.50
2018-07-26T17:07:15.981Z,59.30
2018-07-26T17:09:44.257Z,60.10
2018-07-26T17:12:12.466Z,60.00
2018-07-26T17:14:40.665Z,58.50
2018-07-26T17:17:08.967Z,59.00
2018-07-26T17:19:37.166Z,60.10
2018-07-26T17:22:05.448Z,60.50
2018-07-26T17:24:33.718Z,60.10
2018-07-26T17:27:02.767Z,60.80
2018-07-26T17:29:30.973Z,61.10
2018-07-26T17:31:59.164Z,61.50
2018-07-26T17:34:27.380Z,62.30
2018-07-26T17:36:55.536Z,62.50
2018-07-26T17:39:23.733Z,61.60
2018-07-26T17:41:51.962Z,62.30
2018-07-26T17:44:20.156Z,62.00
2018-07-26T17:46:48.346Z,62.00
2018-07-26T17:49:16.513Z,62.30
2018-07-26T17:51:44.739Z,62.50
2018-07-26T17:54:12.973Z,62.90
2018-07-26T17:56:41.186Z,63.10
2018-07-26T17:59:09.415Z,63.30
2018-07-26T18:01:37.609Z,63.50
2018-07-26T18:04:05.821Z,63.90
2018-07-26T18:06:34.037Z,64.70
2018-07-26T18:09:02.266Z,65.90
2018-07-26T18:11:30.695Z,65.10
2018-07-26T18:13:58.953Z,64.80
2018-07-26T18:16:27.099Z,65.80
2018-07-26T18:18:55.316Z,65.00
2018-07-26T18:21:23.588Z,64.70
2018-07-26T18:23:51.741Z,65.80
2018-07-26T18:26:20.003Z,65.70
2018-07-26T18:28:48.154Z,65.20
2018-07-26T18:31:16.392Z,66.00
2018-07-26T18:33:44.807Z,66.10
2018-07-26T18:36:13.029Z,66.90
2018-07-26T18:38:41.221Z,67.30
2018-07-26T18:41:09.405Z,67.50
2018-07-26T18:43:37.686Z,68.50
2018-07-26T18:46:05.957Z,69.00
2018-07-26T18:48:34.172Z,69.30
2018-07-26T18:51:02.448Z,69.60
2018-07-26T18:53:30.820Z,69.90
2018-07-26T18:55:59.435Z,70.00
2018-07-26T18:58:27.653Z,69.80
2018-07-26T19:00:56.281Z,69.90
2018-07-26T19:03:24.514Z,70.10
2018-07-26T19:05:53.057Z,69.40
2018-07-26T19:08:21.292Z,69.20
2018-07-26T19:10:49.488Z,69.50
2018-07-26T19:13:17.732Z,70.10
2018-07-26T19:15:46.090Z,70.20
2018-07-26T19:18:15.030Z,71.20
2018-07-26T19:20:43.797Z,71.80
2018-07-26T19:23:12.000Z,72.20
2018-07-26T19:25:41.455Z,72.00
2018-07-26T19:28:09.635Z,72.50
2018-07-26T19:30:37.808Z,71.90
2018-07-26T19:33:06.145Z,71.50
2018-07-26T19:35:34.416Z,71.60
2018-07-26T19:38:02.581Z,71.30
2018-07-26T19:40:30.837Z,71.80
2018-07-26T19:42:59.151Z,72.10
2018-07-26T19:45:27.369Z,72.90
2018-07-26T19:47:56.472Z,72.50
2018-07-26T19:50:24.875Z,72.20
2018-07-26T19:52:53.164Z,72.40
2018-07-26T19:55:23.470Z,72.80
2018-07-26T19:57:51.761Z,72.70
2018-07-26T20:00:20.006Z,74.30
2018-07-26T20:02:48.232Z,72.90
2018-07-26T20:05:16.564Z,73.30
2018-07-26T20:07:44.825Z,72.90
2018-07-26T20:10:13.471Z,73.60
2018-07-26T20:12:41.979Z,73.50
2018-07-26T20:15:10.328Z,73.20
2018-07-26T20:17:38.894Z,73.50
2018-07-26T20:20:09.224Z,73.50
2018-07-26T20:22:37.533Z,73.40
2018-07-26T20:25:06.233Z,73.10
2018-07-26T20:27:34.543Z,74.10
2018-07-26T20:30:03.081Z,73.20
2018-07-26T20:32:31.273Z,73.30
2018-07-26T20:35:00.014Z,73.20
2018-07-26T20:37:28.260Z,73.20
2018-07-26T20:39:56.989Z,73.40
2018-07-26T20:42:25.202Z,73.30
2018-07-26T20:44:53.976Z,74.00
2018-07-26T20:47:22.167Z,74.10
2018-07-26T20:49:50.380Z,74.20
2018-07-26T20:52:18.624Z,75.20
2018-07-26T20:54:46.829Z,75.80
2018-07-26T20:57:15.049Z,76.50
2018-07-26T20:59:43.293Z,75.90
2018-07-26T21:02:11.703Z,76.10
2018-07-26T21:04:39.905Z,76.00
2018-07-26T21:07:08.080Z,76.20
2018-07-26T21:09:36.299Z,76.70
2018-07-26T21:12:04.463Z,77.00
2018-07-26T21:14:32.654Z,77.20
2018-07-26T21:17:00.856Z,77.50
2018-07-26T21:19:29.016Z,77.90
2018-07-26T21:21:57.215Z,77.20
2018-07-26T21:24:25.405Z,76.90
2018-07-26T21:26:53.608Z,76.90
2018-07-26T21:29:21.884Z,76.90
2018-07-26T21:31:50.134Z,76.70
2018-07-26T21:34:18.291Z,76.80
2018-07-26T21:36:46.485Z,76.90
2018-07-26T21:39:14.688Z,77.60
2018-07-26T21:41:42.840Z,78.80
2018-07-26T21:44:11.748Z,79.60
2018-07-26T21:46:39.973Z,79.50
2018-07-26T21:49:08.505Z,79.20
2018-07-26T21:51:37.172Z,79.10
2018-07-26T21:54:05.364Z,79.50
2018-07-26T21:56:33.941Z,79.40
2018-07-26T21:59:02.233Z,79.30
2018-07-26T22:01:30.977Z,79.40
2018-07-26T22:03:59.167Z,79.60
2018-07-26T22:06:27.416Z,79.90
2018-07-26T22:08:55.637Z,79.90
2018-07-26T22:11:23.809Z,79.30
2018-07-26T22:13:52.046Z,79.10
2018-07-26T22:16:20.244Z,78.50
2018-07-26T22:18:48.461Z,78.60
2018-07-26T22:21:16.793Z,78.60
2018-07-26T22:23:44.968Z,78.50
2018-07-26T22:26:13.190Z,78.70
2018-07-26T22:28:41.396Z,78.40
2018-07-26T22:31:09.664Z,78.50
2018-07-26T22:33:37.881Z,78.50
2018-07-26T22:36:06.203Z,78.30
2018-07-26T22:38:34.415Z,78.50
2018-07-26T22:41:02.608Z,78.50
2018-07-26T22:43:30.849Z,78.70
2018-07-26T22:45:59.009Z,78.60
2018-07-26T22:48:27.208Z,78.50
2018-07-26T22:50:55.520Z,78.40
2018-07-26T22:53:23.729Z,78.20
2018-07-26T22:55:51.901Z,78.60
2018-07-26T22:58:20.105Z,78.30
2018-07-26T23:03:19.327Z,77.80
2018-07-26T23:05:47.532Z,78.20
2018-07-26T23:08:15.720Z,78.10
2018-07-26T23:10:43.932Z,78.30
2018-07-26T23:13:12.080Z,78.70
2018-07-26T23:15:40.305Z,79.00
2018-07-26T23:18:08.540Z,79.30
2018-07-26T23:20:36.721Z,79.00
2018-07-26T23:23:05.001Z,79.10
2018-07-26T23:25:33.152Z,79.10
2018-07-26T23:28:01.334Z,79.40
2018-07-26T23:30:29.537Z,79.80
2018-07-26T23:32:57.700Z,80.00
2018-07-26T23:35:25.905Z,79.90
2018-07-26T23:37:54.089Z,80.20
2018-07-26T23:40:22.299Z,80.40
2018-07-26T23:42:50.485Z,80.50
2018-07-26T23:45:18.697Z,80.80
2018-07-26T23:47:46.882Z,80.90
2018-07-26T23:50:15.049Z,81.00
2018-07-26T23:52:43.234Z,81.10
2018-07-26T23:55:11.432Z,81.40
2018-07-26T23:57:39.607Z,81.50
